• Join FlightAware (Why Join?)
  • Login
  • US Flag 
01:10PM EDT


 

Airport Tracker/Info


-or-


 

Live Flight TrackerFlight Track Log ✈ N51800 ✈ 24-Apr-2013 ✈ KSEP - KDUA

Flight Track Log - Related Links

Times and Time Zones

All times are in EDT time to prevent confusion due to time zone crossing. See the N51800 flight status page for this flight to view local times or setup timezone preferences in your user account.

Time Position Orientation Groundspeed Altitude Reporting Facility
EDT Latitude Longitude Course Direction KTS MPH feet Rate Location/Type
12:03AM 32.2967 -98.1778 15° North 105 121 4,300  Level Fort Worth Center
12:04AM 32.3133 -98.1681 26° Northeast 65 75 4,800 300 Climbing Fort Worth Center
12:05AM 32.3342 -98.1608 16° North 65 75 4,900  Climbing Fort Worth Center
12:06AM 32.3636 -98.1414 29° Northeast 96 110 4,900  Level Fort Worth Center
12:07AM 32.3908 -98.1317 17° North 101 116 4,900  Level Fort Worth Center
12:08AM 32.3675 -98.1062 15° North  Level FlightAware Approximate
12:08AM 32.4200 -98.1247 11° North 106 122 4,900  Level Fort Worth Center
12:09AM 32.4472 -98.1125 21° North 106 122 4,900  Level Fort Worth Center
12:10AM 32.4767 -98.1006 19° North 106 122 4,900  Level Fort Worth Center
12:11AM 32.5058 -98.0908 16° North 106 122 4,900  Level Fort Worth Center
12:12AM 32.5331 -98.0764 24° Northeast 106 122 4,900  Level Fort Worth Center
12:13AM 32.5622 -98.0642 19° North 106 122 4,900  Level Fort Worth Center
12:14AM 32.5917 -98.0519 19° North 106 122 4,900  Level Fort Worth Center
12:15AM 32.6189 -98.0400 20° North 106 122 4,900  Level Fort Worth Center
12:16AM 32.6461 -98.0278 21° North 106 122 4,900  Level Fort Worth Center
12:17AM 32.6733 -98.0181 17° North 101 116 4,900  Level Fort Worth Center
12:18AM 32.7003 -98.0058 21° North 101 116 4,900  Level Fort Worth Center
12:19AM 32.7297 -97.9939 19° North 101 116 4,900  Level Fort Worth Center
12:20AM 32.7589 -97.9914 North 106 122 5,000  Climbing Fort Worth Center
12:21AM 32.7883 -97.9817 16° North 106 122 4,900 -60 Descending Fort Worth Center
12:22AM 32.8133 -97.9769 North 106 122 4,900  Level Fort Worth Center
12:23AM 32.8467 -97.9697 10° North 106 122 4,900  Level Fort Worth Center
12:24AM 32.8739 -97.9600 17° North 106 122 4,900  Level Fort Worth Center
12:25AM 32.9053 -97.9553 North 106 122 4,900  Level Fort Worth Center
12:26AM 32.9325 -97.9506 North 106 122 4,900  Level Fort Worth Center
12:27AM 32.9636 -97.9408 15° North 106 122 4,900  Level Fort Worth Center
12:28AM 32.9889 -97.9311 18° North 106 122 4,900  Level Fort Worth Center
12:29AM 33.0203 -97.9214 15° North 106 122 4,900  Level Fort Worth Center
12:30AM 33.0472 -97.9189 North 106 122 4,900  Level Fort Worth Center
12:31AM 33.0786 -97.9117 11° North 106 122 4,900  Level Fort Worth Center
12:32AM 33.1039 -97.9019 18° North 101 116 5,000  Climbing Fort Worth Center
12:33AM 33.1331 -97.8847 26° Northeast 106 122 5,000 -60 Level Fort Worth Center
12:34AM 33.1561 -97.8725 24° Northeast 106 122 4,900 -60 Descending Fort Worth Center
12:35AM 33.1894 -97.8603 17° North 106 122 4,900  Level Fort Worth Center
12:36AM 33.2144 -97.8578 North 106 122 4,900  Level Fort Worth Center
12:37AM 33.2500 -97.8606 356° North 106 122 4,900  Level Fort Worth Center
12:38AM 33.2750 -97.8631 355° North 106 122 4,900  Level Fort Worth Center
12:39AM 33.3106 -97.8633 360° North 106 122 5,000  Climbing Fort Worth Center
12:40AM 33.3356 -97.8511 22° Northeast 106 122 5,000  Level Fort Worth Center
12:41AM 33.3669 -97.8439 11° North 106 122 5,100  Climbing Fort Worth Center
12:42AM 33.3942 -97.8389 North 106 122 5,000  Descending Fort Worth Center
12:43AM 33.4275 -97.8367 North 106 122 5,100  Climbing Fort Worth Center
12:44AM 33.4547 -97.8317 North 106 122 5,000  Descending Fort Worth Center
12:45AM 33.4861 -97.8294 North 106 122 5,100 -60 Climbing Fort Worth Center
12:46AM 33.5131 -97.8194 17° North 106 122 4,900 -120 Descending Fort Worth Center
12:47AM 33.5342 -97.8022 34° Northeast 92 106 4,900  Level Fort Worth Center
12:48AM 33.5447 -97.7722 67° East 92 106 4,900  Level Fort Worth Center
12:49AM 33.5594 -97.7375 63° Northeast 99 114 4,900  Level Fort Worth Center
12:50AM 33.5719 -97.7125 59° Northeast 99 114 4,900  Level Fort Worth Center
12:51AM 33.5803 -97.6753 75° East 99 114 4,900  Level Fort Worth Center
12:52AM 33.5889 -97.6403 74° East 93 107 5,000  Climbing Fort Worth Center
12:53AM 33.5992 -97.6106 67° East 93 107 4,900 -60 Descending Fort Worth Center
12:54AM 33.6139 -97.5806 59° Northeast 93 107 4,900  Level Fort Worth Center
12:55AM 33.6203 -97.5481 77° East 98 113 4,900  Level Fort Worth Center
12:56AM 33.6264 -97.5133 78° East 98 113 4,900  Level Fort Worth Center
12:57AM 33.6392 -97.4833 63° Northeast 98 113 4,900  Level Fort Worth Center
12:58AM 33.6536 -97.4558 58° Northeast 98 113 4,900  Level Fort Worth Center
12:59AM 33.6683 -97.4233 61° Northeast 98 113 5,000  Climbing Fort Worth Center
01:00AM 33.6744 -97.3961 75° East 98 113 5,000  Level Fort Worth Center
01:01AM 33.6828 -97.3636 73° East 98 113 5,000 -60 Level Fort Worth Center
01:02AM 33.6892 -97.3286 78° East 98 113 4,900  Descending Fort Worth Center
01:03AM 33.6975 -97.2961 73° East 98 113 5,000  Climbing Fort Worth Center
01:04AM 33.7119 -97.2661 60° Northeast 98 113 5,000  Level Fort Worth Center
01:05AM 33.7203 -97.2336 73° East 98 113 5,000  Level Fort Worth Center
01:06AM 33.7308 -97.1936 72° East 98 113 5,000  Level Fort Worth Center
01:07AM 33.7411 -97.1636 68° East 98 113 5,000  Level Fort Worth Center
01:08AM 33.7514 -97.1336 68° East 98 113 5,000  Level Fort Worth Center
01:09AM 33.7639 -97.1011 65° Northeast 98 113 5,000  Level Fort Worth Center
01:10AM 33.7783 -97.0736 58° Northeast 93 107 5,000  Level Fort Worth Center
01:11AM 33.7889 -97.0436 67° East 93 107 5,000  Level Fort Worth Center
01:12AM 33.7950 -97.0086 78° East 99 114 5,000  Level Fort Worth Center
01:13AM 33.7886 -96.9711 102° East 104 120 5,000  Level Fort Worth Center
01:14AM 33.7883 -96.9336 91° East 104 120 5,000  Level Fort Worth Center
01:15AM 33.7819 -96.8961 102° East 104 120 5,000  Level Fort Worth Center
01:16AM 33.7839 -96.8611 86° East 104 120 5,000  Level Fort Worth Center
01:17AM 33.7858 -96.8311 86° East 104 120 5,000  Level Fort Worth Center
01:18AM 33.7858 -96.7911 90° East 104 120 5,000  Level Fort Worth Center
01:19AM 33.7836 -96.7586 95° East 104 120 5,000  Level Fort Worth Center
01:20AM 33.7853 -96.7161 87° East 104 120 5,000  Level Fort Worth Center
01:21AM 33.7831 -96.6861 95° East 104 120 5,000  Level Fort Worth Center
01:22AM 33.7828 -96.6464 90° East 104 120 5,000  Level Fort Worth Center
01:23AM 33.7828 -96.6114 90° East 104 120 5,000  Level Fort Worth Center
01:24AM 33.7783 -96.5764 99° East 104 120 5,000  Level Fort Worth Center